Time;durP1;ratioP1;P1;durP2;ratioP2;P2;SDS_P1;SDS_P2;PMS_P1;PMS_P2;Temp;Humidity;BMP_temperature;BMP_pressure;BME280_temperature;BME280_humidity;BME280_pressure;Samples;Min_cycle;Max_cycle;Signal;HPM_P1;HPM_P2
2023/06/03 00:00:55;;;;;;;7.43;3.08;;;16.50;83.40;;;;;;6194736;23;20005;-81
2023/06/03 00:03:21;;;;;;;7.13;3.22;;;;;;;;;;6196415;23;20005;-82
2023/06/03 00:24:02;;;;;;;7.28;3.05;;;;;;;;;;6208037;23;20077;-83
2023/06/03 05:30:40;;;;;;;10.85;3.00;;;;;;;;;;6241861;23;20008;-87
2023/06/03 06:17:39;;;;;;;6.57;2.75;;;;;;;;;;6162960;23;20024;-86
2023/06/03 06:35:56;;;;;;;7.95;2.55;;;;;;;;;;6243547;23;20007;-85
2023/06/03 06:51:26;;;;;;;10.50;3.28;;;;;;;;;;6178491;23;19938;-88
2023/06/03 06:56:28;;;;;;;7.55;2.75;;;;;;;;;;6150609;23;20015;-86
2023/06/03 06:59:04;;;;;;;11.93;3.13;;;;;;;;;;6188801;23;20001;-87
2023/06/03 07:25:06;;;;;;;7.25;2.92;;;;;;;;;;6131648;23;20022;-80
2023/06/03 07:27:33;;;;;;;9.52;3.20;;;;;;;;;;6153479;23;20010;-79
2023/06/03 07:30:06;;;;;;;8.45;3.13;;;;;;;;;;6144178;23;19985;-84
2023/06/03 07:36:13;;;;;;;7.68;3.55;;;17.80;87.50;;;;;;6157909;23;20220;-80
2023/06/03 07:39:02;;;;;;;8.88;3.03;;;;;;;;;;6131194;23;20572;-79
2023/06/03 07:41:50;;;;;;;7.15;3.22;;;;;;;;;;6157560;23;20077;-78
2023/06/03 07:44:38;;;;;;;6.10;3.28;;;;;;;;;;6127481;23;20021;-78
2023/06/03 07:47:34;;;;;;;7.40;3.35;;;18.10;86.90;;;;;;6133565;23;20006;-79
2023/06/03 07:50:03;;;;;;;8.95;3.67;;;;;;;;;;6132750;23;20006;-78
2023/06/03 07:52:36;;;;;;;11.07;3.40;;;18.20;86.90;;;;;;6136183;23;20002;-79
2023/06/03 07:55:08;;;;;;;10.30;3.38;;;;;;;;;;6161759;23;20012;-79
2023/06/03 07:58:10;;;;;;;7.00;2.88;;;;;;;;;;6154447;23;20453;-78
2023/06/03 08:00:37;;;;;;;13.43;3.20;;;;;;;;;;6131590;23;20037;-79
2023/06/03 08:03:13;;;;;;;10.90;3.42;;;;;;;;;;6132877;23;20072;-79
2023/06/03 08:05:41;;;;;;;7.30;3.28;;;;;;;;;;6160348;23;20009;-80
2023/06/03 08:08:14;;;;;;;10.05;3.15;;;;;;;;;;6162726;23;20085;-79
2023/06/03 08:10:45;;;;;;;8.25;3.40;;;;;;;;;;6159175;23;20014;-79
2023/06/03 08:13:16;;;;;;;10.15;3.58;;;;;;;;;;6158313;23;20024;-80
2023/06/03 08:15:47;;;;;;;8.95;3.33;;;19.00;85.40;;;;;;6132033;23;20009;-78
2023/06/03 08:18:38;;;;;;;8.88;3.78;;;19.10;85.40;;;;;;6109560;23;20447;-79
2023/06/03 08:21:04;;;;;;;9.68;3.53;;;;;;;;;;6139433;23;19989;-82
2023/06/03 08:26:08;;;;;;;8.38;3.33;;;;;;;;;;6130309;23;20021;-81
2023/06/03 08:28:34;;;;;;;11.15;3.22;;;;;;;;;;6205238;23;20024;-79
2023/06/03 08:31:06;;;;;;;6.63;3.15;;;;;;;;;;6162886;23;20005;-82
2023/06/03 08:33:32;;;;;;;8.93;3.30;;;;;;;;;;6161913;23;19997;-78
2023/06/03 08:36:01;;;;;;;7.07;3.35;;;;;;;;;;6187151;23;20076;-78
2023/06/03 08:38:35;;;;;;;7.47;3.17;;;;;;;;;;6181304;23;20009;-83
2023/06/03 08:41:38;;;;;;;6.00;3.13;;;20.00;82.40;;;;;;6186600;23;20040;-84
2023/06/03 08:44:40;;;;;;;7.75;3.25;;;19.90;82.70;;;;;;6173372;23;20029;-83
2023/06/03 08:48:06;;;;;;;7.45;3.30;;;20.00;82.80;;;;;;6189416;23;19997;-83
2023/06/03 08:51:04;;;;;;;10.27;3.33;;;19.80;82.60;;;;;;6185193;23;20013;-83
2023/06/03 08:53:51;;;;;;;7.80;3.67;;;19.90;83.40;;;;;;6211731;23;20012;-82
2023/06/03 08:56:46;;;;;;;8.75;3.40;;;;;;;;;;6192203;22;20044;-82
2023/06/03 08:59:20;;;;;;;8.13;3.53;;;;;;;;;;6195019;23;20087;-82
2023/06/03 09:02:00;;;;;;;6.70;3.13;;;;;;;;;;6196114;23;20009;-82
2023/06/03 09:04:32;;;;;;;11.32;3.53;;;20.40;81.60;;;;;;6168412;23;20005;-83
2023/06/03 09:07:09;;;;;;;9.93;3.53;;;20.60;81.00;;;;;;6144007;23;20009;-83
2023/06/03 09:09:38;;;;;;;7.82;3.60;;;20.90;80.80;;;;;;6195782;23;20072;-82
2023/06/03 09:12:07;;;;;;;10.57;3.17;;;21.00;80.70;;;;;;6166201;23;20009;-83
2023/06/03 09:14:36;;;;;;;8.60;3.63;;;;;;;;;;6195325;23;19998;-83
2023/06/03 09:17:03;;;;;;;10.70;3.30;;;;;;;;;;6172621;23;20228;-83
2023/06/03 09:19:30;;;;;;;9.45;3.58;;;;;;;;;;6173203;23;19997;-83
2023/06/03 09:21:57;;;;;;;8.93;3.38;;;;;;;;;;6173942;23;20432;-82
2023/06/03 09:24:24;;;;;;;8.70;3.55;;;;;;;;;;6174313;23;20036;-83
2023/06/03 09:26:58;;;;;;;10.50;3.78;;;20.90;80.20;;;;;;6176018;23;20029;-85
2023/06/03 09:29:35;;;;;;;8.50;3.38;;;;;;;;;;6176344;23;20064;-81
2023/06/03 09:32:04;;;;;;;8.63;3.85;;;;;;;;;;6176490;23;20032;-82
2023/06/03 09:34:42;;;;;;;6.75;3.10;;;21.30;80.20;;;;;;6175413;23;20028;-83
2023/06/03 09:37:29;;;;;;;9.80;3.40;;;21.50;80.20;;;;;;6176956;23;20017;-83
2023/06/03 09:40:05;;;;;;;9.43;3.38;;;21.60;79.20;;;;;;6177074;23;20053;-83
2023/06/03 09:42:42;;;;;;;12.60;3.58;;;;;;;;;;6200254;23;20009;-82
2023/06/03 09:45:37;;;;;;;11.52;4.03;;;21.80;79.30;;;;;;6179643;23;19997;-87
2023/06/03 10:14:15;;;;;;;6.32;3.50;;;;;;;;;;6234804;23;20017;-82
2023/06/03 11:38:20;;;;;;;11.80;4.22;;;;;;;;;;6180451;23;20009;-83
2023/06/03 11:41:30;;;;;;;7.30;3.88;;;;;;;;;;6211939;23;20000;-88
2023/06/03 11:54:17;;;;;;;7.82;3.85;;;;;;;;;;6242030;23;20007;-84
2023/06/03 11:57:32;;;;;;;7.13;3.73;;;23.90;74.00;;;;;;6232312;23;19999;-86
2023/06/03 12:00:32;;;;;;;7.45;3.85;;;23.80;75.10;;;;;;6216252;23;20035;-85
2023/06/03 12:03:09;;;;;;;10.38;4.18;;;;;;;;;;6240897;23;20007;-84
2023/06/03 12:21:32;;;;;;;;;;;24.70;74.00;;;;;;6221084;23;20020;-82
2023/06/03 12:24:47;;;;;;;8.45;3.45;;;24.80;73.20;;;;;;6220807;23;19900;-86
2023/06/03 16:38:09;;;;;;;6.32;4.25;;;25.60;66.50;;;;;;6193045;23;20029;-86
2023/06/03 16:41:02;;;;;;;5.75;3.90;;;;;;;;;;6164948;23;20018;-83
2023/06/03 16:43:51;;;;;;;5.75;3.90;;;;;;;;;;6166853;23;20060;-83
2023/06/03 16:46:36;;;;;;;6.47;3.88;;;;;;;;;;6144765;23;20020;-85
2023/06/03 16:49:40;;;;;;;6.13;3.70;;;25.60;66.50;;;;;;6163059;23;20006;-83
2023/06/03 16:52:23;;;;;;;6.68;3.97;;;;;;;;;;6160521;23;20052;-84
2023/06/03 16:55:29;;;;;;;7.57;4.07;;;25.40;66.50;;;;;;6156486;23;20005;-83
2023/06/03 16:58:40;;;;;;;7.45;4.10;;;;;;;;;;6158500;23;20080;-83
2023/06/03 17:02:00;;;;;;;7.60;3.92;;;25.30;67.00;;;;;;6152250;23;20006;-85
2023/06/03 17:15:47;;;;;;;7.05;3.90;;;25.60;67.10;;;;;;6182265;23;20021;-83
2023/06/03 17:18:31;;;;;;;5.15;3.10;;;;;;;;;;6188565;23;20234;-84
2023/06/03 17:21:13;;;;;;;;;;;;;;;;;;;;;
2023/06/03 17:24:35;;;;;;;6.38;3.38;;;25.50;66.90;;;;;;6191727;23;20072;-83
2023/06/03 17:27:40;;;;;;;6.05;3.55;;;25.50;66.70;;;;;;6165780;23;20059;-83
2023/06/03 17:30:31;;;;;;;7.75;3.72;;;;;;;;;;6191401;23;20016;-87
2023/06/03 17:33:13;;;;;;;8.25;3.72;;;;;;;;;;6190981;23;19997;-85
2023/06/03 17:36:13;;;;;;;;;;;;;;;;;;;;;
2023/06/03 17:38:52;;;;;;;;;;;25.30;67.00;;;;;;6195261;23;20208;-83
2023/06/03 17:41:23;;;;;;;8.07;3.10;;;;;;;;;;6170531;23;19908;-85
2023/06/03 17:43:55;;;;;;;8.93;4.03;;;;;;;;;;6169488;23;20240;-82
2023/06/03 17:46:34;;;;;;;7.78;3.97;;;24.90;67.00;;;;;;6171609;23;20005;-84
2023/06/03 17:49:21;;;;;;;8.43;3.90;;;24.60;67.30;;;;;;6165988;23;20080;-83
2023/06/03 18:46:56;;;;;;;4.78;3.65;;;;;;;;;;6196784;23;20019;-82
2023/06/03 19:15:24;;;;;;;8.90;3.70;;;;;;;;;;6139026;23;20009;-86
2023/06/03 19:20:26;;;;;;;6.43;3.60;;;;;;;;;;6160680;23;20012;-87
2023/06/03 19:22:57;;;;;;;6.55;3.80;;;;;;;;;;6213375;23;19996;-86
2023/06/03 19:25:38;;;;;;;6.30;3.90;;;;;;;;;;6186348;23;20000;-85
2023/06/03 19:28:04;;;;;;;6.05;3.90;;;;;;;;;;6187953;23;20016;-86
2023/06/03 19:31:03;;;;;;;5.72;4.10;;;21.90;72.40;;;;;;6180623;23;20025;-85
2023/06/03 19:33:33;;;;;;;8.45;4.10;;;;;;;;;;6213327;23;20043;-84
2023/06/03 19:36:02;;;;;;;4.97;3.70;;;;;;;;;;6213232;23;20005;-83
2023/06/03 19:38:32;;;;;;;6.30;4.05;;;;;;;;;;6187342;23;20009;-84
2023/06/03 19:41:04;;;;;;;5.82;3.75;;;;;;;;;;6212749;23;20025;-84
2023/06/03 19:43:34;;;;;;;6.75;4.03;;;;;;;;;;6188016;23;20039;-84
2023/06/03 19:46:27;;;;;;;8.50;3.65;;;21.60;72.60;;;;;;6212489;23;20005;-84
2023/06/03 20:15:02;;;;;;;8.82;3.50;;;;;;;;;;6193473;23;20012;-84
2023/06/03 20:17:30;;;;;;;9.73;3.83;;;;;;;;;;6186008;23;20009;-86
2023/06/03 20:19:58;;;;;;;7.90;3.75;;;;;;;;;;6185830;23;20000;-84
2023/06/03 20:22:27;;;;;;;5.47;3.50;;;;;;;;;;6186229;23;19990;-83
2023/06/03 20:24:54;;;;;;;;;;;20.90;73.00;;;;;;6212969;23;20008;-85
2023/06/03 20:27:29;;;;;;;6.72;3.42;;;;;;;;;;6186337;23;19932;-86
2023/06/03 21:29:41;;;;;;;3.45;2.60;;;;;;;;;;6203456;23;20025;-83
2023/06/03 21:32:22;;;;;;;5.35;2.80;;;;;;;;;;6205095;22;20017;-83
2023/06/03 21:34:51;;;;;;;4.20;2.80;;;;;;;;;;6180874;23;20001;-83
2023/06/03 21:37:20;;;;;;;4.80;2.63;;;;;;;;;;6189915;23;20202;-85
2023/06/03 21:39:49;;;;;;;4.60;2.97;;;;;;;;;;6178827;23;20010;-84
2023/06/03 21:42:15;;;;;;;6.30;2.63;;;;;;;;;;6151588;23;20032;-83
2023/06/03 21:44:41;;;;;;;5.70;2.40;;;;;;;;;;6152829;23;20013;-84
2023/06/03 21:47:17;;;;;;;5.28;2.63;;;;;;;;;;6150937;23;20005;-82
2023/06/03 21:49:44;;;;;;;5.63;2.58;;;;;;;;;;6176247;23;20492;-83
2023/06/03 21:52:10;;;;;;;5.10;2.80;;;;;;;;;;6147319;23;20006;-81
2023/06/03 21:54:43;;;;;;;5.15;2.65;;;19.50;75.10;;;;;;6172723;23;20057;-82
2023/06/03 21:57:12;;;;;;;5.30;2.63;;;19.50;75.20;;;;;;6172189;23;20024;-83
2023/06/03 21:59:40;;;;;;;15.15;2.92;;;19.40;75.20;;;;;;6120510;23;20010;-83
2023/06/03 22:02:06;;;;;;;4.90;2.13;;;;;;;;;;6149751;23;20057;-87
2023/06/03 22:14:54;;;;;;;5.55;2.42;;;;;;;;;;6224215;23;20017;-85
2023/06/03 22:17:23;;;;;;;4.53;2.33;;;;;;;;;;6214053;23;20008;-88
2023/06/03 22:45:43;;;;;;;4.35;2.13;;;;;;;;;;6188222;23;20005;-87
2023/06/03 22:48:13;;;;;;;5.32;2.20;;;;;;;;;;6188434;23;20013;-87
2023/06/03 22:50:52;;;;;;;7.68;2.33;;;18.70;73.70;;;;;;6214135;23;20005;-86
2023/06/03 22:58:29;;;;;;;4.93;2.38;;;;;;;;;;6182769;23;20001;-85
2023/06/03 23:01:01;;;;;;;4.68;2.10;;;;;;;;;;6212202;23;20006;-85
2023/06/03 23:16:24;;;;;;;3.13;1.70;;;;;;;;;;6207763;23;20004;-84
2023/06/03 23:32:37;;;;;;;4.43;1.80;;;;;;;;;;6200119;23;20039;-87
2023/06/03 23:35:36;;;;;;;4.80;2.10;;;18.10;73.20;;;;;;6217563;23;20013;-84
2023/06/03 23:38:02;;;;;;;5.40;1.95;;;;;;;;;;6192371;22;20005;-85
2023/06/03 23:40:29;;;;;;;3.90;1.63;;;;;;;;;;6242302;22;20226;-84
2023/06/03 23:42:59;;;;;;;3.05;1.85;;;;;;;;;;6242892;22;19999;-84
2023/06/03 23:45:25;;;;;;;7.30;1.97;;;;;;;;;;6244402;22;20019;-87
2023/06/03 23:47:54;;;;;;;3.40;2.05;;;;;;;;;;6218195;22;20012;-83
2023/06/03 23:50:21;;;;;;;3.35;1.70;;;;;;;;;;6217455;22;20045;-83
2023/06/03 23:52:47;;;;;;;3.20;1.70;;;;;;;;;;6244118;22;20009;-85
2023/06/03 23:55:14;;;;;;;4.13;1.60;;;;;;;;;;6218339;23;19989;-85
